Tropical Cyclones
[Index]
Main Index Home Page Stock Weather Photos Extreme Storms Discussion Storm News and Storm Chasing Reports Tropical Cyclones / Hurricanes / Typhoons Weather Data and Links Wild Fires / Bushfires Weather Observation Techniques Weather Picture Catalogue Tornado Pictures and Reports Stock Video Footage and DVDs for sale
Season 1980-1981 Tropical Cyclone OLGA Track Map
Season 1980-1981 Summaries: [BoM-AU] [JTWC-AU] [JTWC-SIO] [JTWC-SPAC] [JTWC-SH]
<<- Previous TC | JTWC 1980-1981 Season | Next TC ->>

click for intensity scale information  Lat/long Grid: Show Hide

 Date Labels: Show Hide

Joint Typhoon Warning Centre Cyclone Data

Name: OLGA

04 Apr 1981 00:00 UTC to 13 Apr 1981 12:00 UTC

    date/time    lat    long     hPa   cat  kts
1981-04-04 00    5.9    94.0                  20          
1981-04-04 06    5.3    93.1                  20          
1981-04-04 12    5.3    92.6                  20          
1981-04-04 18    5.9    92.4                  20          
1981-04-05 00    6.6    92.5                  25          
1981-04-05 06    7.2    92.7                  30          
1981-04-05 12    7.7    92.9                  30          
1981-04-05 18    8.2    93.1                  30          
1981-04-06 00    8.6    93.2                  30          
1981-04-06 06    9.1    92.9                  30          
1981-04-06 12    9.4    92.4                  30          
1981-04-06 18    9.2    92.2                  30          
1981-04-07 00    8.7    92.1                  35          
1981-04-07 06    8.3    92.5            1     40          
1981-04-07 12    8.2    92.9            1     45          
1981-04-07 18    8.6    93.0            1     45          
1981-04-08 00    9.0    92.7            1     45          
1981-04-08 06    9.4    92.1            1     45          
1981-04-08 12    9.8    91.5            1     45          
1981-04-08 18   10.2    91.0            2     55          
1981-04-09 00   10.6    90.6            2     70          
1981-04-09 06   11.0    90.3            3     80          
1981-04-09 12   11.3    90.0            3     90          
1981-04-09 18   11.8    89.8            3     90          
1981-04-10 00   12.7    89.5            3     90          
1981-04-10 06   13.8    89.3            4    100          
1981-04-10 12   15.0    89.0            4    115          
1981-04-10 18   16.0    88.4            4    120          
1981-04-11 00   17.1    87.7            4    115          
1981-04-11 06   18.5    87.2            4    105          
1981-04-11 12   19.9    86.8            3     90          
1981-04-11 18   21.0    86.8            3     75          
1981-04-12 00   22.1    87.2            2     65          
1981-04-12 06   23.2    87.8            2     65          
1981-04-12 12   24.3    88.8            2     65          
1981-04-12 18   25.8    90.1            2     65          
1981-04-13 00   27.4    91.8            2     65          
1981-04-13 06   28.4    93.9            2     60          
1981-04-13 12   29.1    96.4            2     55          
Winds are 1-min average.

Tropical cyclone tracks developed by Michael Bath using data from the Joint Typhoon Warning Centre Best Tracks and Google Maps.


[Australian Severe Weather index] [Copyright Notice] [Email Contacts] [Search This Site] [Privacy Policy]
Document: tropical_cyclone_olga.htm Updated: 18 September 2016